首页
METAR-TAF:

METAR-TAF

机场 :

香農機場

Shannon, 爱尔兰

纬度: 52-42N, 经度: 008-55W, 海拔: 14米

当前天气观测

该预报发布于23分钟前的07:00 UTC
风速11节,风向东南
温度 8°C
湿度 87%
气压 998 hPa
能见度10公里或以上
少量云层高于1600英尺
散云层高于2500英尺
多云层高于5000英尺

METAR: EINN 200700Z 13011KT 9999 FEW016 SCT025 BKN050 08/06 Q0998 NOSIG

时间: 07:23 (07:23 UTC)

预报

该预报发布于2小时和23分钟前的05:00 UTC
预报有效从20日的 06点(UTC)到 21日的 06点(UTC)
风速13节,风向东转东南
能见度10公里或以上
少量云层高于1800英尺
多云层高于3000英尺
短暂存在
从 20日的 06点(UTC)到 20日的 16点(UTC)
能見度: 5000
多云层高于1500英尺
散云层高于2000英尺, 积雨云.
小阵雨
成为
从 20日的 08点(UTC)到 20日的 10点(UTC)
风速8节,风向东南
成为
从 20日的 13点(UTC)到 20日的 15点(UTC)
风速9节,风向
短暂存在
从 20日的 16点(UTC)到 21日的 01点(UTC)
能見度: 4000
多云层高于1000英尺
散云层高于2000英尺, 积雨云.
阵雨
短暂存在
从 21日的 01点(UTC)到 21日的 04点(UTC)
能見度: 7000
散云层高于1200英尺
散云层高于2000英尺, 积雨云.
小阵雨

TAF: EINN 200500Z 2006/2106 12013KT 9999 FEW018 BKN030 TEMPO 2006/2016 5000 -SHRA BKN015 SCT020CB BECMG 2008/2010 13008KT BECMG 2013/2015 10009KT TEMPO 2016/2101 4000 SHRA BKN010 SCT020CB TEMPO 2101/2104 7000 -SHRA SCT012 SCT020CB

超过4000个机场的气象观测和天气预报(METAR&TAF报告)。

可查询的气象台以黄色和红色小点在地图上表示。

将鼠标移到小点上方,可查看气象台名称。

然后点击查看天气观测和预报。

如需切换地图:点击带黑十字的绿色按钮放大地图;点击带横线的绿色按钮缩小地图;或者点击绿色箭头查看邻近地区的地图。


METAR-TAF: